KLEX/LEX METAR and TAF weather

Enter ICAO airport designator
Station Type Date Time Source
KLEX METAR 2019/10/23 19:54 UTC NOAA

KLEX 231954Z 20004KT 10SM CLR 18/M01 A3015 RMK AO2 SLP208 T01781011


Station Type Date Time Source
KLEX Decoded METAR 2019/10/23 19:54 UTC NOAA

LEXINGTON BLUE GRASS AIRPORT, KY, United States (KLEX) 38-02N 084-36W 300M
Oct 23, 2019 - 03:54 PM EDT / 2019.10.23 1954 UTC
Wind: from the SSW (200 degrees) at 5 MPH (4 KT):0
Visibility: 10 mile(s):0
Sky conditions: clear
Temperature: 64.0 F (17.8 C)
Dew Point: 30.0 F (-1.1 C)
Relative Humidity: 27%
Pressure (altimeter): 30.15 in. Hg (1020 hPa)
ob: KLEX 231954Z 20004KT 10SM CLR 18/M01 A3015 RMK AO2 SLP208 T01781011
cycle: 20

Station Type Date Time Source
KLEX TAF 2019/10/23 18:22 UTC NOAA

TAF KLEX 231720Z 2318/2418 21009KT P6SM FEW250
FM240000 18007KT P6SM SCT250
FM241500 21008KT P6SM SCT250

Example: see airport list